SALINA,KS (SLN) ASOS reports gust of 52 knots (59.8 mph) from SSE @ 2337Z -- KSLN 202337Z 15015G52KT 4SM +TSRA FEW031 BKN070 OVC110 25/21 A2971 RMK AO